Time;durP1;ratioP1;P1;durP2;ratioP2;P2;SDS_P1;SDS_P2;PMS_P1;PMS_P2;Temp;Humidity;BMP_temperature;BMP_pressure;BME280_temperature;BME280_humidity;BME280_pressure;Samples;Min_cycle;Max_cycle;Signal;HPM_P1;HPM_P2
2023/08/03 00:00:20;;;;;;;;;;;14.40;99.90;;;;;;5112597;28;20144;-68
2023/08/03 00:02:47;;;;;;;;;;;14.50;99.90;;;;;;5112727;28;19923;-71
2023/08/03 00:05:17;;;;;;;;;;;14.50;99.90;;;;;;5106385;28;20010;-71
2023/08/03 00:07:44;;;;;;;;;;;14.70;99.90;;;;;;5106972;28;19912;-68
2023/08/03 00:10:11;;;;;;;;;;;14.70;99.90;;;;;;5112485;28;19908;-66
2023/08/03 00:12:38;;;;;;;;;;;14.90;99.90;;;;;;5112528;28;19912;-65
2023/08/03 00:15:05;;;;;;;;;;;14.90;99.90;;;;;;5112035;28;19908;-70
2023/08/03 00:17:31;;;;;;;;;;;15.00;99.90;;;;;;5109963;28;19919;-66
2023/08/03 00:20:00;;;;;;;;;;;15.10;99.90;;;;;;5092097;28;20368;-68
2023/08/03 00:22:27;;;;;;;;;;;15.20;99.90;;;;;;5091935;28;19942;-65
2023/08/03 00:24:53;;;;;;;;;;;15.20;99.90;;;;;;5107421;28;19943;-70
2023/08/03 00:27:20;;;;;;;;;;;15.40;99.90;;;;;;5112478;28;19908;-63
2023/08/03 00:29:47;;;;;;;;;;;15.50;99.90;;;;;;5104208;28;19908;-66
2023/08/03 00:32:13;;;;;;;;;;;15.70;99.90;;;;;;5092181;28;19950;-71
2023/08/03 00:34:40;;;;;;;;;;;15.70;99.90;;;;;;5096127;28;20416;-69
2023/08/03 00:37:06;;;;;;;;;;;15.80;99.90;;;;;;5097782;28;19918;-67
2023/08/03 00:39:33;;;;;;;;;;;16.00;99.90;;;;;;5091645;28;19961;-66
2023/08/03 00:42:00;;;;;;;;;;;16.10;99.90;;;;;;5091827;28;19916;-63
2023/08/03 00:44:27;;;;;;;;;;;16.20;99.90;;;;;;5092837;28;20019;-68
2023/08/03 00:46:53;;;;;;;;;;;16.30;99.90;;;;;;5095814;28;19965;-65
2023/08/03 00:49:20;;;;;;;;;;;16.40;99.90;;;;;;5093246;28;19908;-65
2023/08/03 00:51:47;;;;;;;;;;;16.60;99.90;;;;;;5112123;28;19908;-64
2023/08/03 00:54:13;;;;;;;;;;;16.60;99.90;;;;;;5104976;28;19912;-63
2023/08/03 00:56:41;;;;;;;;;;;16.80;99.90;;;;;;5093002;28;19918;-64
2023/08/03 00:59:10;;;;;;;;;;;16.90;99.90;;;;;;5101051;28;19907;-67
2023/08/03 01:01:38;;;;;;;;;;;17.10;99.90;;;;;;5111935;28;19907;-63
2023/08/03 01:04:04;;;;;;;;;;;17.20;99.90;;;;;;5111657;28;19911;-65
2023/08/03 01:06:31;;;;;;;;;;;17.40;99.90;;;;;;5108947;28;19938;-65
2023/08/03 01:09:00;;;;;;;;;;;17.40;99.90;;;;;;5111409;28;19914;-62
2023/08/03 01:11:28;;;;;;;;;;;17.60;99.90;;;;;;5111528;28;19922;-65
2023/08/03 01:13:55;;;;;;;;;;;17.80;99.90;;;;;;5103500;28;19951;-65
2023/08/03 01:16:22;;;;;;;;;;;18.00;99.90;;;;;;5115298;28;19914;-65
2023/08/03 01:18:49;;;;;;;;;;;18.10;99.90;;;;;;5108808;28;19915;-65
2023/08/03 01:21:18;;;;;;;;;;;18.20;99.90;;;;;;5110947;28;19912;-65
2023/08/03 01:23:45;;;;;;;;;;;18.40;99.90;;;;;;5115304;28;20296;-65
2023/08/03 01:26:12;;;;;;;;;;;18.50;99.90;;;;;;5099529;28;20011;-65
2023/08/03 01:28:38;;;;;;;;;;;18.60;99.90;;;;;;5095444;28;19915;-65
2023/08/03 01:31:05;;;;;;;;;;;18.70;99.90;;;;;;5102847;27;19915;-68
2023/08/03 01:33:31;;;;;;;;;;;19.00;99.90;;;;;;5105778;28;19914;-65
2023/08/03 01:35:58;;;;;;;;;;;19.10;99.90;;;;;;5115368;28;19915;-66
2023/08/03 01:38:25;;;;;;;;;;;19.20;99.90;;;;;;5115647;28;19908;-69
2023/08/03 01:40:53;;;;;;;;;;;19.30;99.90;;;;;;5115048;28;19953;-71
2023/08/03 01:43:21;;;;;;;;;;;19.50;99.90;;;;;;5115276;28;19955;-69
2023/08/03 01:45:48;;;;;;;;;;;19.60;99.90;;;;;;5115109;28;19911;-66
2023/08/03 01:48:14;;;;;;;;;;;19.70;99.90;;;;;;5115062;28;20280;-65
2023/08/03 01:50:41;;;;;;;;;;;19.80;99.90;;;;;;5114743;28;19923;-72
2023/08/03 01:53:08;;;;;;;;;;;20.00;99.90;;;;;;5114660;28;19915;-66
2023/08/03 01:55:34;;;;;;;;;;;20.10;99.90;;;;;;5110360;28;19912;-66
2023/08/03 01:58:02;;;;;;;;;;;20.10;99.90;;;;;;5103285;28;20387;-70
2023/08/03 02:00:28;;;;;;;;;;;20.20;99.90;;;;;;5094929;28;20304;-69
2023/08/03 02:02:55;;;;;;;;;;;20.30;99.90;;;;;;5094981;28;19999;-72
2023/08/03 02:05:22;;;;;;;;;;;20.50;99.90;;;;;;5093893;28;19915;-72
2023/08/03 02:07:55;;;;;;;;;;;20.60;99.30;;;;;;5093265;28;20002;-71
2023/08/03 02:10:23;;;;;;;;;;;20.70;99.50;;;;;;5093316;28;19908;-71
2023/08/03 02:12:50;;;;;;;;;;;20.70;99.40;;;;;;5093404;28;20284;-67
2023/08/03 02:15:16;;;;;;;;;;;20.70;99.20;;;;;;5093581;28;20345;-69
2023/08/03 02:17:44;;;;;;;;;;;20.70;99.00;;;;;;5093690;28;19998;-72
2023/08/03 02:20:11;;;;;;;;;;;20.60;99.30;;;;;;5094168;28;20101;-72
2023/08/03 02:22:38;;;;;;;;;;;20.70;99.40;;;;;;5095143;28;19923;-71
2023/08/03 02:25:05;;;;;;;;;;;20.70;99.20;;;;;;5095051;28;19965;-70
2023/08/03 02:27:31;;;;;;;;;;;20.80;98.80;;;;;;5094452;28;19912;-68
2023/08/03 02:29:58;;;;;;;;;;;20.90;99.00;;;;;;5094955;28;19908;-72
2023/08/03 02:32:27;;;;;;;;;;;21.00;98.80;;;;;;5094697;28;19904;-70
2023/08/03 02:34:54;;;;;;;;;;;21.00;98.30;;;;;;5093642;28;19919;-69
2023/08/03 02:37:20;;;;;;;;;;;21.00;98.30;;;;;;5094803;28;19915;-71
2023/08/03 02:39:47;;;;;;;;;;;21.10;98.50;;;;;;5094746;28;19908;-72
2023/08/03 02:42:14;;;;;;;;;;;21.30;98.40;;;;;;5094643;28;19916;-71
2023/08/03 02:44:40;;;;;;;;;;;21.40;97.70;;;;;;5094435;28;20031;-71
2023/08/03 02:47:07;;;;;;;;;;;21.50;97.60;;;;;;5094658;28;19953;-73
2023/08/03 02:49:34;;;;;;;;;;;21.60;97.50;;;;;;5093978;28;20007;-69
2023/08/03 02:52:00;;;;;;;;;;;21.70;97.30;;;;;;5094111;28;19955;-71
2023/08/03 02:54:27;;;;;;;;;;;21.90;97.50;;;;;;5094163;28;19912;-71
2023/08/03 02:56:53;;;;;;;;;;;22.10;97.00;;;;;;5094079;28;19915;-71
2023/08/03 02:59:20;;;;;;;;;;;22.10;97.10;;;;;;5094115;28;20007;-71
2023/08/03 03:01:47;;;;;;;;;;;22.10;96.60;;;;;;5094163;28;20031;-72
2023/08/03 03:04:13;;;;;;;;;;;22.00;96.50;;;;;;5094093;28;19915;-71
2023/08/03 03:06:42;;;;;;;;;;;21.90;96.40;;;;;;5094047;28;19969;-69
2023/08/03 03:09:09;;;;;;;;;;;22.20;95.70;;;;;;5094745;28;20369;-70
2023/08/03 03:11:35;;;;;;;;;;;22.40;94.50;;;;;;5093745;28;19916;-72
2023/08/03 03:14:02;;;;;;;;;;;22.70;95.10;;;;;;5094000;28;19930;-71
2023/08/03 03:16:28;;;;;;;;;;;23.30;94.80;;;;;;5094131;28;20019;-71
2023/08/03 03:18:55;;;;;;;;;;;24.20;94.40;;;;;;5105617;28;20006;-69
2023/08/03 03:21:22;;;;;;;;;;;25.10;92.80;;;;;;5104219;28;19934;-68
2023/08/03 03:23:48;;;;;;;;;;;24.90;92.10;;;;;;5099641;28;19924;-66
2023/08/03 03:26:15;;;;;;;;;;;24.30;92.50;;;;;;5097221;28;19930;-66
2023/08/03 03:28:42;;;;;;;;;;;23.90;93.80;;;;;;5112731;28;19962;-69
2023/08/03 03:31:08;;;;;;;;;;;24.10;93.40;;;;;;5112591;28;19908;-67
2023/08/03 03:33:35;;;;;;;;;;;25.30;92.40;;;;;;5112381;28;19908;-69
2023/08/03 03:36:02;;;;;;;;;;;27.40;89.00;;;;;;5112754;28;19912;-68
2023/08/03 03:38:29;;;;;;;;;;;28.80;85.60;;;;;;5112586;28;20007;-65
2023/08/03 03:40:55;;;;;;;;;;;29.30;78.40;;;;;;5109894;28;19907;-67
2023/08/03 03:43:22;;;;;;;;;;;29.80;77.90;;;;;;5111413;28;19998;-69
2023/08/03 03:45:48;;;;;;;;;;;31.40;76.00;;;;;;5112715;28;20380;-67
2023/08/03 03:48:16;;;;;;;;;;;32.80;72.50;;;;;;5111362;28;19908;-65
2023/08/03 03:50:42;;;;;;;;;;;32.00;72.00;;;;;;5112274;28;19951;-68
2023/08/03 03:53:09;;;;;;;;;;;32.60;70.10;;;;;;5095759;28;19911;-67
2023/08/03 03:55:36;;;;;;;;;;;33.40;69.20;;;;;;5098907;28;19947;-67
2023/08/03 03:58:02;;;;;;;;;;;33.50;66.20;;;;;;5110801;28;19919;-65
2023/08/03 04:00:29;;;;;;;;;;;32.70;66.80;;;;;;5112896;28;19912;-66
2023/08/03 04:02:56;;;;;;;;;;;32.30;68.20;;;;;;5102644;28;19920;-66
2023/08/03 04:05:22;;;;;;;;;;;33.20;66.90;;;;;;5100305;28;19912;-65
2023/08/03 04:07:49;;;;;;;;;;;34.00;66.40;;;;;;5108088;28;19912;-71
2023/08/03 04:10:16;;;;;;;;;;;34.60;64.50;;;;;;5101879;28;19927;-69
2023/08/03 04:12:42;;;;;;;;;;;34.90;64.80;;;;;;5108645;28;19920;-67
2023/08/03 04:15:09;;;;;;;;;;;35.20;64.10;;;;;;5111565;28;19999;-70
2023/08/03 04:17:37;;;;;;;;;;;35.20;64.00;;;;;;5111172;28;19912;-70
2023/08/03 04:20:05;;;;;;;;;;;35.10;65.10;;;;;;5098821;28;20380;-72
2023/08/03 04:22:31;;;;;;;;;;;35.00;65.20;;;;;;5102682;28;20008;-72
2023/08/03 04:24:58;;;;;;;;;;;34.80;65.70;;;;;;5100268;28;20003;-72
2023/08/03 04:27:24;;;;;;;;;;;33.90;66.10;;;;;;5100961;28;19913;-72
2023/08/03 04:29:51;;;;;;;;;;;33.10;67.40;;;;;;5091711;28;19912;-67
2023/08/03 04:32:18;;;;;;;;;;;32.00;69.40;;;;;;5102200;28;19919;-70
2023/08/03 04:34:44;;;;;;;;;;;30.80;71.40;;;;;;5106190;28;19908;-69
2023/08/03 04:37:11;;;;;;;;;;;29.40;73.50;;;;;;5112299;28;19919;-68
2023/08/03 04:39:37;;;;;;;;;;;28.30;76.10;;;;;;5112041;28;19961;-67
2023/08/03 04:42:04;;;;;;;;;;;27.00;79.10;;;;;;5100327;28;19916;-67
2023/08/03 04:44:31;;;;;;;;;;;26.30;81.30;;;;;;5091883;28;20288;-66
2023/08/03 04:46:57;;;;;;;;;;;25.60;83.40;;;;;;5091738;28;20368;-67
2023/08/03 04:49:25;;;;;;;;;;;25.30;85.00;;;;;;5092609;28;19908;-66
2023/08/03 04:51:52;;;;;;;;;;;25.30;84.50;;;;;;5093466;28;19915;-67
2023/08/03 04:54:19;;;;;;;;;;;25.40;84.80;;;;;;5112011;28;19962;-66
2023/08/03 04:56:46;;;;;;;;;;;25.00;85.30;;;;;;5087723;28;19913;-67
2023/08/03 04:59:12;;;;;;;;;;;24.80;86.10;;;;;;5107662;28;19919;-67
2023/08/03 05:01:39;;;;;;;;;;;24.50;87.00;;;;;;5109739;28;19912;-68
2023/08/03 05:04:06;;;;;;;;;;;24.00;88.70;;;;;;5111688;28;20402;-68
2023/08/03 05:06:32;;;;;;;;;;;23.80;90.10;;;;;;5110156;28;19998;-69
2023/08/03 05:08:59;;;;;;;;;;;23.40;90.70;;;;;;5096958;28;19912;-72
2023/08/03 05:11:25;;;;;;;;;;;23.30;91.20;;;;;;5102352;28;19916;-72
2023/08/03 05:13:52;;;;;;;;;;;23.00;91.50;;;;;;5095375;28;19918;-72
2023/08/03 05:16:24;;;;;;;;;;;22.80;92.10;;;;;;5111778;28;19965;-72
2023/08/03 05:18:51;;;;;;;;;;;22.70;92.20;;;;;;5115375;28;19957;-69
2023/08/03 05:21:18;;;;;;;;;;;22.80;92.20;;;;;;5109928;28;19912;-68
2023/08/03 05:23:45;;;;;;;;;;;23.00;92.30;;;;;;5111436;28;20644;-70
2023/08/03 05:26:12;;;;;;;;;;;22.90;92.10;;;;;;5095563;28;20222;-72
2023/08/03 05:28:39;;;;;;;;;;;22.80;92.60;;;;;;5109026;28;19912;-67
2023/08/03 05:31:05;;;;;;;;;;;22.60;92.80;;;;;;5106794;28;20016;-68
2023/08/03 05:33:35;;;;;;;;;;;22.40;93.40;;;;;;5101679;28;19918;-68
2023/08/03 05:36:02;;;;;;;;;;;22.50;93.70;;;;;;5112447;28;19915;-67
2023/08/03 05:38:29;;;;;;;;;;;22.50;93.60;;;;;;5112500;28;19923;-69
2023/08/03 05:40:56;;;;;;;;;;;22.50;93.10;;;;;;5110393;28;19934;-68
2023/08/03 05:43:27;;;;;;;;;;;22.30;93.30;;;;;;5109605;28;19932;-68
2023/08/03 05:46:00;;;;;;;;;;;22.40;93.20;;;;;;5114329;28;19908;-69
2023/08/03 05:48:28;;;;;;;;;;;22.90;93.00;;;;;;5109896;28;20045;-68
2023/08/03 05:50:56;;;;;;;;;;;23.20;92.30;;;;;;5111447;28;19912;-66
2023/08/03 05:53:23;;;;;;;;;;;23.30;92.10;;;;;;5109308;28;19912;-67
2023/08/03 05:55:50;;;;;;;;;;;23.00;92.40;;;;;;5114613;28;20044;-65
2023/08/03 05:58:17;;;;;;;;;;;23.00;92.60;;;;;;5113643;28;20353;-67
2023/08/03 06:00:48;;;;;;;;;;;22.70;92.80;;;;;;5115057;28;20391;-66
2023/08/03 06:03:15;;;;;;;;;;;22.60;92.90;;;;;;5113789;28;20317;-67
2023/08/03 06:05:44;;;;;;;;;;;22.60;93.10;;;;;;5115021;28;20033;-69
2023/08/03 06:08:24;;;;;;;;;;;22.50;93.30;;;;;;5114779;28;19943;-69
2023/08/03 06:11:03;;;;;;;;;;;22.70;93.60;;;;;;5114737;28;19908;-70
2023/08/03 06:13:36;;;;;;;;;;;23.30;92.90;;;;;;5094266;28;19908;-68
2023/08/03 06:16:08;;;;;;;;;;;24.00;91.80;;;;;;5112581;28;19915;-68
2023/08/03 06:18:52;;;;;;;;;;;24.30;91.00;;;;;;5112508;28;19946;-68
2023/08/03 06:21:19;;;;;;;;;;;25.00;90.90;;;;;;5111437;28;19911;-66
2023/08/03 06:23:47;;;;;;;;;;;26.20;87.90;;;;;;5092001;28;20331;-67
2023/08/03 06:26:15;;;;;;;;;;;27.00;86.30;;;;;;5092829;28;19912;-68
2023/08/03 06:28:41;;;;;;;;;;;27.40;84.80;;;;;;5076149;28;20273;-68
2023/08/03 06:31:16;;;;;;;;;;;27.50;84.10;;;;;;5094051;28;19908;-67
2023/08/03 06:33:43;;;;;;;;;;;27.60;82.90;;;;;;5093627;28;20246;-69
2023/08/03 06:36:17;;;;;;;;;;;26.80;83.60;;;;;;5076411;28;19912;-68
2023/08/03 06:38:44;;;;;;;;;;;25.90;85.50;;;;;;5114260;28;19915;-67
2023/08/03 06:41:10;;;;;;;;;;;24.70;88.20;;;;;;5114488;28;19953;-69
2023/08/03 06:43:37;;;;;;;;;;;23.80;90.40;;;;;;5113255;28;20351;-68
2023/08/03 06:46:05;;;;;;;;;;;23.10;91.40;;;;;;5110448;28;20368;-70
2023/08/03 06:48:32;;;;;;;;;;;22.30;92.40;;;;;;5097671;28;19908;-70
2023/08/03 06:51:00;;;;;;;;;;;21.50;93.90;;;;;;5114337;28;19915;-69
2023/08/03 06:53:27;;;;;;;;;;;21.00;94.90;;;;;;5108020;28;19951;-66
2023/08/03 06:55:53;;;;;;;;;;;20.60;95.60;;;;;;5113218;28;19908;-68
2023/08/03 06:58:20;;;;;;;;;;;20.30;96.30;;;;;;5114113;28;19907;-68
2023/08/03 07:00:47;;;;;;;;;;;20.00;96.80;;;;;;5110406;28;19922;-69
2023/08/03 07:03:14;;;;;;;;;;;19.80;97.30;;;;;;5104339;28;19916;-68
2023/08/03 07:05:41;;;;;;;;;;;19.70;97.80;;;;;;5097923;28;20426;-68
2023/08/03 07:08:08;;;;;;;;;;;19.50;98.30;;;;;;5104272;28;19972;-69
2023/08/03 07:10:36;;;;;;;;;;;19.30;98.90;;;;;;5112498;28;19908;-69
2023/08/03 07:13:03;;;;;;;;;;;19.10;99.20;;;;;;5106873;28;19912;-68
2023/08/03 07:15:34;;;;;;;;;;;18.90;99.80;;;;;;5111904;28;20368;-69
2023/08/03 07:18:04;;;;;;;;;;;18.80;99.90;;;;;;5113011;28;19985;-69
2023/08/03 07:20:31;;;;;;;;;;;18.60;99.90;;;;;;5112377;28;20368;-69
2023/08/03 07:22:57;;;;;;;;;;;18.50;99.90;;;;;;5109856;28;19927;-68
2023/08/03 07:25:24;;;;;;;;;;;18.40;99.90;;;;;;5106642;28;19957;-69
2023/08/03 07:27:54;;;;;;;;;;;18.20;99.90;;;;;;5102734;28;20319;-68
2023/08/03 07:30:21;;;;;;;;;;;18.10;99.90;;;;;;5106479;28;19919;-69
2023/08/03 07:32:48;;;;;;;;;;;18.00;99.90;;;;;;5112050;28;19911;-69
2023/08/03 07:35:14;;;;;;;;;;;17.90;99.90;;;;;;5102545;28;19912;-70
2023/08/03 07:37:41;;;;;;;;;;;17.90;99.90;;;;;;5112890;28;20010;-67
2023/08/03 07:40:08;;;;;;;;;;;17.80;99.90;;;;;;5113277;28;20010;-69
2023/08/03 07:42:35;;;;;;;;;;;17.70;99.90;;;;;;5105175;28;19991;-68
2023/08/03 07:45:02;;;;;;;;;;;17.60;99.90;;;;;;5098515;28;20310;-67
2023/08/03 07:47:30;;;;;;;;;;;17.60;99.90;;;;;;5112379;28;19915;-68
2023/08/03 07:49:57;;;;;;;;;;;17.60;99.90;;;;;;5094305;28;19969;-66
2023/08/03 07:52:24;;;;;;;;;;;17.50;99.90;;;;;;5112216;28;20322;-69
2023/08/03 07:54:51;;;;;;;;;;;17.50;99.90;;;;;;5110922;28;20365;-69
2023/08/03 07:57:17;;;;;;;;;;;17.40;99.90;;;;;;5110572;28;20007;-70
2023/08/03 07:59:53;;;;;;;;;;;17.40;99.90;;;;;;5109520;28;19907;-71
2023/08/03 08:02:20;;;;;;;;;;;17.20;99.90;;;;;;5109222;28;19920;-70
2023/08/03 08:04:50;;;;;;;;;;;17.30;99.90;;;;;;5106945;28;20392;-71
2023/08/03 08:07:18;;;;;;;;;;;17.30;99.90;;;;;;5094441;28;19916;-70
2023/08/03 08:09:44;;;;;;;;;;;17.20;99.90;;;;;;5111107;28;20314;-69
2023/08/03 08:12:11;;;;;;;;;;;17.20;99.90;;;;;;5110146;28;19947;-72
2023/08/03 08:14:38;;;;;;;;;;;17.10;99.90;;;;;;5106331;28;19918;-69
2023/08/03 08:17:04;;;;;;;;;;;17.10;99.90;;;;;;5089933;28;19962;-69
2023/08/03 08:19:31;;;;;;;;;;;17.10;99.90;;;;;;5095199;28;20356;-69
2023/08/03 08:21:58;;;;;;;;;;;17.00;99.90;;;;;;5110324;28;20014;-68
2023/08/03 08:24:25;;;;;;;;;;;17.00;99.90;;;;;;5110296;28;19965;-69
2023/08/03 08:26:51;;;;;;;;;;;16.90;99.90;;;;;;5111308;28;19957;-68
2023/08/03 08:29:18;;;;;;;;;;;17.00;99.90;;;;;;5111116;28;20364;-68
2023/08/03 08:31:44;;;;;;;;;;;16.90;99.90;;;;;;5110494;28;19908;-69
2023/08/03 08:34:11;;;;;;;;;;;16.90;99.90;;;;;;5111754;28;19950;-69
2023/08/03 08:36:38;;;;;;;;;;;16.90;99.90;;;;;;5091651;28;19912;-69
2023/08/03 08:39:04;;;;;;;;;;;16.80;99.90;;;;;;5092971;28;20395;-69
2023/08/03 08:41:31;;;;;;;;;;;16.90;99.90;;;;;;5111832;28;19908;-70
2023/08/03 08:43:58;;;;;;;;;;;16.90;99.90;;;;;;4977787;28;3759517;-69
2023/08/03 08:46:25;;;;;;;;;;;16.90;99.90;;;;;;5092822;28;19931;-69
2023/08/03 08:48:51;;;;;;;;;;;16.80;99.90;;;;;;5091634;28;19946;-70
2023/08/03 08:51:20;;;;;;;;;;;16.80;99.90;;;;;;5109008;28;19916;-68
2023/08/03 08:53:46;;;;;;;;;;;16.80;99.90;;;;;;5111317;28;20014;-68
2023/08/03 08:56:13;;;;;;;;;;;16.70;99.90;;;;;;5094857;28;19953;-70
2023/08/03 08:58:40;;;;;;;;;;;16.70;99.90;;;;;;5095298;28;19912;-70
2023/08/03 09:01:06;;;;;;;;;;;16.70;99.90;;;;;;5093216;28;20395;-67
2023/08/03 09:03:46;;;;;;;;;;;16.70;99.90;;;;;;5093725;28;19930;-68
2023/08/03 09:06:12;;;;;;;;;;;16.60;99.90;;;;;;5073266;28;19916;-68
2023/08/03 09:08:56;;;;;;;;;;;16.70;99.90;;;;;;5113974;28;19915;-68
2023/08/03 09:11:39;;;;;;;;;;;16.60;99.90;;;;;;5111216;28;20276;-68
2023/08/03 09:14:07;;;;;;;;;;;16.60;99.90;;;;;;5106660;28;19923;-68
2023/08/03 09:16:34;;;;;;;;;;;16.50;99.90;;;;;;5110796;28;19915;-68
2023/08/03 09:19:00;;;;;;;;;;;16.50;99.90;;;;;;5111667;28;20000;-68
2023/08/03 09:21:27;;;;;;;;;;;16.50;99.90;;;;;;5111813;28;19908;-70
2023/08/03 09:23:55;;;;;;;;;;;16.50;99.90;;;;;;5095272;28;19920;-69
2023/08/03 09:26:24;;;;;;;;;;;16.40;99.90;;;;;;5111933;28;19912;-69
2023/08/03 09:28:51;;;;;;;;;;;16.50;99.90;;;;;;5110318;28;20380;-68
2023/08/03 09:31:23;;;;;;;;;;;16.40;99.90;;;;;;5094033;28;19963;-69
2023/08/03 09:34:00;;;;;;;;;;;16.40;99.90;;;;;;5111509;28;19911;-68
2023/08/03 09:36:27;;;;;;;;;;;16.40;99.90;;;;;;5108637;28;20438;-69
2023/08/03 09:39:09;;;;;;;;;;;16.40;99.90;;;;;;5115318;28;20375;-67
2023/08/03 09:41:36;;;;;;;;;;;16.40;99.90;;;;;;5132690;28;20003;-69
2023/08/03 09:44:05;;;;;;;;;;;16.40;99.90;;;;;;5106125;27;19928;-69
2023/08/03 09:46:32;;;;;;;;;;;16.40;99.90;;;;;;5114678;28;20560;-66
2023/08/03 09:48:58;;;;;;;;;;;16.40;99.90;;;;;;5114537;28;19911;-70
2023/08/03 09:51:28;;;;;;;;;;;16.40;99.90;;;;;;5095191;28;19912;-66
2023/08/03 09:53:59;;;;;;;;;;;16.40;99.90;;;;;;5097902;27;19918;-66
2023/08/03 09:56:28;;;;;;;;;;;16.40;99.90;;;;;;5115767;28;19912;-70
2023/08/03 09:58:58;;;;;;;;;;;16.30;99.90;;;;;;5115478;27;20280;-67
2023/08/03 10:01:25;;;;;;;;;;;16.30;99.90;;;;;;5114178;28;20323;-69
2023/08/03 10:03:58;;;;;;;;;;;16.30;99.90;;;;;;5096244;27;19947;-71
2023/08/03 10:06:28;;;;;;;;;;;16.30;99.90;;;;;;5105806;28;19912;-69
2023/08/03 10:09:03;;;;;;;;;;;16.30;99.90;;;;;;5096443;28;19912;-69
2023/08/03 10:11:37;;;;;;;;;;;16.20;99.90;;;;;;5115055;28;19991;-69
2023/08/03 10:14:05;;;;;;;;;;;16.20;99.90;;;;;;5115680;27;19931;-71
2023/08/03 10:16:33;;;;;;;;;;;16.10;99.90;;;;;;5116750;28;20406;-70
2023/08/03 10:19:01;;;;;;;;;;;16.20;99.90;;;;;;5113469;28;19968;-69
2023/08/03 10:21:28;;;;;;;;;;;16.10;99.90;;;;;;5115077;28;19912;-70
2023/08/03 10:24:10;;;;;;;;;;;16.10;99.90;;;;;;5101624;28;20680;-67
2023/08/03 10:26:37;;;;;;;;;;;16.10;99.90;;;;;;5107883;28;19912;-70
2023/08/03 10:29:04;;;;;;;;;;;16.00;99.90;;;;;;5114640;28;19908;-70
2023/08/03 10:31:31;;;;;;;;;;;16.00;99.90;;;;;;5114237;28;20069;-70
2023/08/03 10:33:57;;;;;;;;;;;16.00;99.90;;;;;;5094998;28;19919;-70
2023/08/03 10:36:27;;;;;;;;;;;16.00;99.90;;;;;;5093913;28;19908;-72
2023/08/03 10:38:57;;;;;;;;;;;15.90;99.90;;;;;;5105802;28;19919;-72
2023/08/03 10:41:25;;;;;;;;;;;15.90;99.90;;;;;;5112182;28;20400;-67
2023/08/03 10:44:11;;;;;;;;;;;15.90;99.90;;;;;;5109669;28;20619;-66
2023/08/03 10:46:42;;;;;;;;;;;15.80;99.90;;;;;;5112557;28;19911;-70
2023/08/03 10:49:23;;;;;;;;;;;15.80;99.90;;;;;;5113577;28;20048;-68
2023/08/03 10:51:54;;;;;;;;;;;15.70;99.90;;;;;;5109743;28;20358;-70
2023/08/03 10:54:22;;;;;;;;;;;15.60;99.90;;;;;;5111840;28;19966;-70
2023/08/03 10:57:07;;;;;;;;;;;15.60;99.90;;;;;;5112734;28;19961;-71
2023/08/03 10:59:47;;;;;;;;;;;15.60;99.90;;;;;;5111948;28;19914;-67
2023/08/03 11:02:18;;;;;;;;;;;15.50;99.90;;;;;;5109257;28;20412;-68
2023/08/03 11:04:45;;;;;;;;;;;15.40;99.90;;;;;;5110449;28;20337;-69
2023/08/03 11:07:13;;;;;;;;;;;15.40;99.90;;;;;;5109948;28;19920;-70
2023/08/03 11:09:39;;;;;;;;;;;15.40;99.90;;;;;;5113343;28;19912;-70
2023/08/03 11:12:07;;;;;;;;;;;15.30;99.90;;;;;;5110262;28;19960;-71
2023/08/03 11:14:37;;;;;;;;;;;15.30;99.90;;;;;;5112745;28;19908;-70
2023/08/03 11:17:03;;;;;;;;;;;15.30;99.90;;;;;;5110261;28;19908;-68
2023/08/03 11:19:33;;;;;;;;;;;15.20;99.90;;;;;;5112907;28;19907;-69
2023/08/03 11:22:00;;;;;;;;;;;15.10;99.90;;;;;;5106794;28;19919;-69
2023/08/03 11:24:33;;;;;;;;;;;15.10;99.90;;;;;;5111965;28;19912;-68
2023/08/03 11:26:59;;;;;;;;;;;15.10;99.90;;;;;;5112499;28;19945;-68
2023/08/03 11:29:26;;;;;;;;;;;15.00;99.90;;;;;;5112417;28;20378;-68
2023/08/03 11:31:53;;;;;;;;;;;15.00;99.90;;;;;;5111708;28;20253;-68
2023/08/03 11:34:23;;;;;;;;;;;14.90;99.90;;;;;;5111391;28;19912;-70
2023/08/03 11:36:50;;;;;;;;;;;15.00;99.90;;;;;;5112679;28;19915;-70
2023/08/03 11:39:18;;;;;;;;;;;14.90;99.90;;;;;;5112799;28;20295;-71
2023/08/03 11:41:45;;;;;;;;;;;14.90;99.90;;;;;;5107227;28;20536;-68
2023/08/03 11:44:11;;;;;;;;;;;14.90;99.90;;;;;;5093392;28;20372;-69
2023/08/03 11:46:38;;;;;;;;;;;14.90;99.90;;;;;;5092560;28;19915;-68
2023/08/03 11:49:05;;;;;;;;;;;14.80;99.90;;;;;;5103391;28;19947;-69
2023/08/03 11:51:32;;;;;;;;;;;14.80;99.90;;;;;;5110577;28;19923;-71
2023/08/03 11:54:06;;;;;;;;;;;14.80;99.90;;;;;;5111581;28;19914;-70
2023/08/03 11:56:33;;;;;;;;;;;14.80;99.90;;;;;;5093031;28;19909;-68
2023/08/03 11:59:04;;;;;;;;;;;14.80;99.90;;;;;;5107290;28;19919;-70
2023/08/03 12:01:31;;;;;;;;;;;14.80;99.90;;;;;;5111308;28;19912;-70
2023/08/03 12:04:05;;;;;;;;;;;14.90;99.90;;;;;;5092777;28;19949;-68
2023/08/03 12:06:44;;;;;;;;;;;14.80;99.90;;;;;;5092651;28;19919;-67
2023/08/03 12:09:16;;;;;;;;;;;14.90;99.90;;;;;;5092752;28;19908;-68
2023/08/03 12:11:43;;;;;;;;;;;14.80;99.90;;;;;;5093911;28;19958;-69
2023/08/03 12:14:10;;;;;;;;;;;14.80;99.90;;;;;;5092134;28;20410;-70
2023/08/03 12:16:37;;;;;;;;;;;14.80;99.90;;;;;;5092689;28;19999;-69
2023/08/03 12:19:08;;;;;;;;;;;14.80;99.90;;;;;;5074852;28;19908;-70
2023/08/03 12:21:35;;;;;;;;;;;14.80;99.90;;;;;;5092717;28;19913;-69
2023/08/03 12:24:02;;;;;;;;;;;14.80;99.90;;;;;;5092472;28;20011;-68
2023/08/03 12:26:28;;;;;;;;;;;14.80;99.90;;;;;;5092730;28;19908;-70
2023/08/03 12:28:55;;;;;;;;;;;14.70;99.90;;;;;;5091715;28;19919;-70
2023/08/03 12:31:22;;;;;;;;;;;14.80;99.90;;;;;;5094985;28;19945;-68
2023/08/03 12:33:49;;;;;;;;;;;14.70;99.90;;;;;;5112565;28;19908;-69
2023/08/03 12:36:17;;;;;;;;;;;14.70;99.90;;;;;;5112559;28;20022;-69
2023/08/03 12:38:44;;;;;;;;;;;14.80;99.90;;;;;;5112723;28;19960;-70
2023/08/03 12:41:10;;;;;;;;;;;14.70;99.90;;;;;;5112228;28;19972;-70
2023/08/03 12:43:37;;;;;;;;;;;14.70;99.90;;;;;;5112657;28;19931;-67
2023/08/03 12:46:03;;;;;;;;;;;14.70;99.90;;;;;;5112628;28;19908;-69
2023/08/03 12:48:30;;;;;;;;;;;14.70;99.90;;;;;;5113003;28;20292;-70
2023/08/03 12:50:57;;;;;;;;;;;14.70;99.90;;;;;;5112678;28;19908;-71
2023/08/03 12:53:24;;;;;;;;;;;14.60;99.90;;;;;;5093320;28;19912;-71
2023/08/03 12:55:50;;;;;;;;;;;14.60;99.90;;;;;;5092510;28;19912;-71
2023/08/03 12:58:17;;;;;;;;;;;14.60;99.90;;;;;;5092190;28;19926;-69
2023/08/03 13:00:45;;;;;;;;;;;14.60;99.90;;;;;;5094214;28;20022;-71
2023/08/03 13:03:12;;;;;;;;;;;14.60;99.90;;;;;;5097352;28;19928;-68
2023/08/03 13:05:38;;;;;;;;;;;14.50;99.90;;;;;;5093388;28;19916;-70
2023/08/03 13:08:05;;;;;;;;;;;14.40;99.90;;;;;;5091584;28;19913;-69
2023/08/03 13:10:32;;;;;;;;;;;14.40;99.90;;;;;;5092209;28;20876;-71
2023/08/03 13:12:58;;;;;;;;;;;14.40;99.90;;;;;;5110561;28;19912;-71
2023/08/03 13:15:25;;;;;;;;;;;14.30;99.90;;;;;;5112709;28;19908;-71
2023/08/03 13:17:52;;;;;;;;;;;14.30;99.90;;;;;;5113495;28;19912;-67
2023/08/03 13:20:19;;;;;;;;;;;14.30;99.90;;;;;;5090297;28;19961;-71
2023/08/03 13:22:45;;;;;;;;;;;14.30;99.90;;;;;;5102412;28;19924;-68
2023/08/03 13:25:12;;;;;;;;;;;14.20;99.90;;;;;;5095876;28;19908;-71
2023/08/03 13:27:38;;;;;;;;;;;14.20;99.90;;;;;;5096252;28;19952;-70
2023/08/03 13:30:05;;;;;;;;;;;14.10;99.90;;;;;;5097371;28;19946;-68
2023/08/03 13:32:32;;;;;;;;;;;14.00;99.90;;;;;;5106549;28;20000;-69
2023/08/03 13:34:59;;;;;;;;;;;14.00;99.90;;;;;;5115722;28;19919;-67
2023/08/03 13:37:25;;;;;;;;;;;13.90;99.90;;;;;;5116078;28;19911;-70
2023/08/03 13:39:52;;;;;;;;;;;14.00;99.90;;;;;;5116251;28;19917;-68
2023/08/03 13:42:18;;;;;;;;;;;13.90;99.90;;;;;;5096496;28;19920;-67
2023/08/03 13:44:45;;;;;;;;;;;13.80;99.90;;;;;;5095801;28;19927;-69
2023/08/03 13:47:12;;;;;;;;;;;13.80;99.90;;;;;;5096013;28;20011;-70
2023/08/03 13:49:40;;;;;;;;;;;13.80;99.90;;;;;;5103203;28;19963;-70
2023/08/03 13:52:06;;;;;;;;;;;13.70;99.90;;;;;;5097900;28;19916;-70
2023/08/03 13:54:33;;;;;;;;;;;13.70;99.90;;;;;;5095720;28;20045;-69
2023/08/03 13:57:00;;;;;;;;;;;13.60;99.90;;;;;;5095269;28;19989;-69
2023/08/03 13:59:26;;;;;;;;;;;13.60;99.90;;;;;;5095387;28;19908;-69
2023/08/03 14:01:53;;;;;;;;;;;13.60;99.90;;;;;;5110119;28;19919;-69
2023/08/03 14:04:21;;;;;;;;;;;13.60;99.90;;;;;;5097471;28;19952;-69
2023/08/03 14:06:47;;;;;;;;;;;13.50;99.90;;;;;;5115614;28;19915;-71
2023/08/03 14:09:14;;;;;;;;;;;13.50;99.90;;;;;;5115784;28;20018;-69
2023/08/03 14:11:41;;;;;;;;;;;13.40;99.90;;;;;;5098779;28;19919;-69
2023/08/03 14:14:08;;;;;;;;;;;13.40;99.90;;;;;;5095096;28;19931;-68
2023/08/03 14:16:35;;;;;;;;;;;13.30;99.90;;;;;;5094973;28;19914;-70
2023/08/03 14:19:02;;;;;;;;;;;13.30;99.90;;;;;;5095939;28;19920;-67